createdAt,value
2018-08-20T00:01:21.598Z,23.90
2018-08-20T00:03:50.771Z,23.86
2018-08-20T00:06:19.684Z,23.85
2018-08-20T00:08:48.418Z,23.84
2018-08-20T00:11:17.186Z,23.68
2018-08-20T00:13:46.452Z,23.61
2018-08-20T00:16:15.746Z,23.49
2018-08-20T00:18:45.804Z,23.49
2018-08-20T00:21:14.425Z,23.48
2018-08-20T00:23:43.324Z,23.50
2018-08-20T00:26:12.664Z,23.40
2018-08-20T00:28:41.816Z,23.45
2018-08-20T00:31:10.478Z,23.46
2018-08-20T00:33:39.198Z,23.43
2018-08-20T00:36:07.856Z,23.34
2018-08-20T00:38:36.635Z,23.30
2018-08-20T00:41:05.366Z,23.22
2018-08-20T00:43:33.982Z,23.22
2018-08-20T00:46:02.640Z,23.19
2018-08-20T00:48:31.256Z,23.10
2018-08-20T00:50:59.889Z,23.13
2018-08-20T00:53:28.558Z,23.08
2018-08-20T00:55:57.234Z,23.01
2018-08-20T00:58:25.847Z,22.97
2018-08-20T01:00:54.480Z,23.00
2018-08-20T01:03:23.257Z,23.02
2018-08-20T01:05:51.985Z,22.95
2018-08-20T01:08:21.060Z,22.86
2018-08-20T01:10:49.812Z,22.86
2018-08-20T01:13:18.431Z,22.88
2018-08-20T01:15:49.312Z,22.82
2018-08-20T01:18:18.332Z,22.81
2018-08-20T01:20:46.952Z,22.81
2018-08-20T01:23:15.659Z,22.64
2018-08-20T01:25:44.281Z,22.69
2018-08-20T01:28:13.629Z,22.69
2018-08-20T01:30:42.207Z,22.61
2018-08-20T01:33:16.545Z,22.59
2018-08-20T01:35:45.167Z,22.56
2018-08-20T01:38:14.589Z,22.57
2018-08-20T01:40:43.497Z,22.56
2018-08-20T01:43:12.075Z,22.50
2018-08-20T01:45:40.860Z,22.49
2018-08-20T01:48:09.737Z,22.46
2018-08-20T01:50:38.406Z,22.49
2018-08-20T01:53:07.003Z,22.47
2018-08-20T01:55:35.645Z,22.41
2018-08-20T01:58:04.267Z,22.41
2018-08-20T02:00:32.896Z,22.36
2018-08-20T02:03:04.386Z,22.36
2018-08-20T02:05:33.961Z,22.38
2018-08-20T02:08:02.814Z,22.30
2018-08-20T02:10:32.561Z,22.28
2018-08-20T02:13:01.178Z,21.53
2018-08-20T02:15:29.923Z,22.20
2018-08-20T02:17:58.633Z,22.20
2018-08-20T02:20:27.268Z,22.18
2018-08-20T02:22:55.920Z,22.13
2018-08-20T02:25:24.804Z,22.14
2018-08-20T02:27:53.797Z,22.07
2018-08-20T02:30:22.387Z,22.03
2018-08-20T02:32:51.045Z,22.10
2018-08-20T02:35:19.751Z,22.01
2018-08-20T02:37:48.791Z,21.89
2018-08-20T02:40:18.303Z,21.86
2018-08-20T02:42:47.403Z,21.84
2018-08-20T02:45:17.793Z,21.81
2018-08-20T02:47:47.017Z,21.84
2018-08-20T02:50:16.204Z,21.85
2018-08-20T02:52:49.322Z,21.84
2018-08-20T02:55:17.979Z,21.77
2018-08-20T02:57:46.688Z,21.79
2018-08-20T03:00:15.496Z,21.83
2018-08-20T03:02:44.166Z,21.85
2018-08-20T03:05:13.362Z,21.79
2018-08-20T03:07:42.008Z,21.73
2018-08-20T03:10:13.146Z,21.67
2018-08-20T03:12:42.160Z,21.58
2018-08-20T03:15:11.510Z,21.52
2018-08-20T03:17:41.694Z,21.55
2018-08-20T03:20:11.128Z,21.56
2018-08-20T03:22:39.790Z,21.58
2018-08-20T03:25:08.928Z,21.55
2018-08-20T03:27:37.662Z,21.57
2018-08-20T03:30:07.409Z,21.60
2018-08-20T03:32:35.970Z,21.57
2018-08-20T03:35:05.649Z,21.46
2018-08-20T03:37:34.315Z,21.33
2018-08-20T03:40:03.058Z,21.36
2018-08-20T03:42:31.849Z,21.32
2018-08-20T03:45:00.477Z,21.31
2018-08-20T03:47:29.375Z,21.28
2018-08-20T03:49:59.030Z,21.21
2018-08-20T03:52:27.729Z,21.17
2018-08-20T03:54:56.320Z,21.18
2018-08-20T03:57:25.571Z,21.11
2018-08-20T03:59:54.943Z,21.09
2018-08-20T04:02:23.608Z,20.96
2018-08-20T04:04:52.192Z,20.89
2018-08-20T04:07:21.532Z,20.85
2018-08-20T04:09:50.169Z,20.84
2018-08-20T04:12:18.904Z,20.80
2018-08-20T04:14:48.184Z,20.81
2018-08-20T04:17:16.875Z,20.85
2018-08-20T04:19:45.588Z,20.76
2018-08-20T04:22:14.205Z,20.70
2018-08-20T04:24:42.792Z,20.71
2018-08-20T04:27:11.358Z,20.68
2018-08-20T04:29:39.997Z,20.72
2018-08-20T04:32:08.675Z,20.68
2018-08-20T04:34:37.288Z,20.60
2018-08-20T04:37:05.990Z,20.61
2018-08-20T04:39:34.594Z,20.55
2018-08-20T04:42:03.216Z,20.55
2018-08-20T04:44:31.838Z,20.60
2018-08-20T04:47:00.430Z,20.66
2018-08-20T04:49:29.846Z,20.69
2018-08-20T04:51:58.470Z,20.69
2018-08-20T04:54:27.411Z,20.75
2018-08-20T04:56:56.132Z,20.70
2018-08-20T04:59:24.721Z,20.69
2018-08-20T05:01:53.452Z,20.77
2018-08-20T05:04:22.089Z,20.87
2018-08-20T05:06:51.443Z,20.86
2018-08-20T05:09:20.107Z,20.90
2018-08-20T05:11:48.772Z,20.93
2018-08-20T05:14:17.414Z,20.96
2018-08-20T05:16:46.671Z,20.98
2018-08-20T05:19:15.421Z,21.00
2018-08-20T05:21:44.063Z,21.12
2018-08-20T05:24:12.700Z,21.13
2018-08-20T05:26:41.337Z,21.20
2018-08-20T05:29:09.994Z,21.32
2018-08-20T05:31:40.142Z,21.43
2018-08-20T05:34:08.869Z,21.51
2018-08-20T05:36:38.251Z,21.48
2018-08-20T05:39:08.717Z,21.56
2018-08-20T05:41:37.459Z,21.51
2018-08-20T05:44:06.174Z,21.61
2018-08-20T05:46:34.844Z,21.73
2018-08-20T05:49:03.538Z,22.30
2018-08-20T05:51:32.514Z,24.17
2018-08-20T05:54:01.313Z,25.59
2018-08-20T05:56:36.653Z,26.57
2018-08-20T05:59:05.345Z,27.08
2018-08-20T06:01:34.084Z,28.04
2018-08-20T06:04:02.877Z,29.02
2018-08-20T06:06:31.665Z,29.82
2018-08-20T06:09:00.397Z,30.57
2018-08-20T06:11:29.253Z,31.13
2018-08-20T06:13:57.926Z,31.55
2018-08-20T06:16:26.580Z,30.69
2018-08-20T06:18:55.280Z,31.70
2018-08-20T06:21:24.062Z,32.21
2018-08-20T06:23:52.688Z,32.57
2018-08-20T06:26:21.382Z,31.12
2018-08-20T06:28:50.139Z,31.22
2018-08-20T06:31:18.825Z,30.90
2018-08-20T06:33:47.443Z,31.86
2018-08-20T06:36:16.200Z,32.35
2018-08-20T06:38:44.951Z,32.30
2018-08-20T06:41:13.915Z,32.57
2018-08-20T06:43:42.574Z,32.88
2018-08-20T06:46:11.186Z,29.60
2018-08-20T06:48:39.976Z,27.89
2018-08-20T06:51:08.780Z,26.82
2018-08-20T06:53:37.364Z,26.24
2018-08-20T06:56:06.181Z,25.99
2018-08-20T06:58:34.907Z,25.95
2018-08-20T07:01:04.237Z,25.69
2018-08-20T07:03:33.547Z,25.50
2018-08-20T07:06:02.180Z,25.57
2018-08-20T07:08:31.596Z,25.19
2018-08-20T07:11:00.547Z,25.31
2018-08-20T07:13:34.254Z,25.26
2018-08-20T07:16:03.049Z,24.96
2018-08-20T07:18:31.683Z,24.81
2018-08-20T07:21:02.048Z,24.95
2018-08-20T07:23:31.472Z,24.92
2018-08-20T07:26:00.674Z,25.11
2018-08-20T07:28:29.337Z,25.21
2018-08-20T07:30:58.878Z,24.98
2018-08-20T07:33:27.846Z,25.26
2018-08-20T07:35:57.454Z,25.46
2018-08-20T07:38:26.669Z,25.60
2018-08-20T07:40:55.327Z,25.80
2018-08-20T07:43:24.069Z,25.86
2018-08-20T07:45:52.690Z,25.69
2018-08-20T07:48:21.454Z,25.85
2018-08-20T07:50:50.204Z,25.90
2018-08-20T07:53:18.953Z,26.15
2018-08-20T07:55:48.204Z,26.44
2018-08-20T07:58:17.015Z,26.36
2018-08-20T08:00:45.654Z,26.32
2018-08-20T08:03:14.339Z,26.48
2018-08-20T08:05:42.964Z,26.70
2018-08-20T08:08:11.942Z,26.72
2018-08-20T08:10:40.608Z,26.61
2018-08-20T08:13:09.360Z,26.41
2018-08-20T08:15:38.103Z,26.51
2018-08-20T08:18:07.085Z,26.66
2018-08-20T08:20:36.630Z,26.58
2018-08-20T08:23:09.959Z,26.74
2018-08-20T08:25:38.639Z,26.74
2018-08-20T08:28:07.245Z,27.08
2018-08-20T08:30:36.622Z,27.37
2018-08-20T08:33:05.376Z,27.53
2018-08-20T08:35:34.565Z,27.47
2018-08-20T08:38:03.299Z,27.62
2018-08-20T08:40:31.908Z,27.86
2018-08-20T08:43:00.684Z,27.99
2018-08-20T08:45:30.120Z,27.70
2018-08-20T08:47:58.782Z,27.73
2018-08-20T08:50:28.348Z,27.87
2018-08-20T08:52:57.135Z,28.18
2018-08-20T08:55:26.423Z,28.18
2018-08-20T08:57:54.993Z,28.22
2018-08-20T09:00:23.598Z,27.91
2018-08-20T09:02:52.413Z,28.19
2018-08-20T09:05:21.107Z,28.27
2018-08-20T09:07:49.767Z,28.49
2018-08-20T09:10:18.428Z,28.29
2018-08-20T09:12:47.094Z,28.47
2018-08-20T09:15:17.660Z,28.75
2018-08-20T09:17:46.429Z,28.76
2018-08-20T09:20:16.392Z,28.83
2018-08-20T09:22:45.101Z,28.93
2018-08-20T09:25:14.672Z,28.90
2018-08-20T09:27:44.846Z,28.89
2018-08-20T09:30:17.366Z,29.15
2018-08-20T09:32:47.018Z,29.20
2018-08-20T09:35:15.682Z,29.43
2018-08-20T09:37:44.370Z,29.46
2018-08-20T09:40:13.651Z,29.54
2018-08-20T09:42:43.249Z,29.59
2018-08-20T09:45:12.067Z,29.88
2018-08-20T09:47:42.302Z,29.97
2018-08-20T09:50:14.754Z,30.05
2018-08-20T09:52:43.663Z,30.15
2018-08-20T09:55:12.262Z,30.09
2018-08-20T09:57:41.142Z,30.30
2018-08-20T10:00:45.823Z,30.38
2018-08-20T10:03:15.370Z,30.00
2018-08-20T10:05:44.239Z,29.83
2018-08-20T10:08:13.585Z,30.18
2018-08-20T10:10:42.239Z,29.87
2018-08-20T10:13:10.944Z,30.00
2018-08-20T10:15:39.616Z,30.32
2018-08-20T10:18:08.718Z,30.14
2018-08-20T10:20:37.416Z,30.32
2018-08-20T10:23:06.189Z,30.41
2018-08-20T10:25:34.918Z,30.18
2018-08-20T10:28:03.571Z,30.38
2018-08-20T10:30:32.232Z,30.62
2018-08-20T10:33:00.930Z,30.76
2018-08-20T10:35:29.499Z,30.86
2018-08-20T10:37:58.240Z,30.67
2018-08-20T10:40:26.824Z,30.97
2018-08-20T10:42:55.459Z,30.93
2018-08-20T10:45:29.284Z,30.77
2018-08-20T10:47:57.911Z,31.16
2018-08-20T10:50:26.578Z,31.36
2018-08-20T10:52:55.214Z,31.55
2018-08-20T10:55:23.817Z,31.78
2018-08-20T10:57:52.501Z,31.91
2018-08-20T11:00:21.170Z,31.93
2018-08-20T11:02:50.435Z,32.06
2018-08-20T11:05:19.751Z,31.91
2018-08-20T11:07:48.441Z,32.02
2018-08-20T11:10:17.180Z,32.13
2018-08-20T11:12:45.752Z,32.16
2018-08-20T11:15:14.386Z,31.98
2018-08-20T11:17:43.241Z,31.91
2018-08-20T11:20:14.543Z,32.01
2018-08-20T11:22:43.388Z,32.00
2018-08-20T11:25:12.791Z,32.07
2018-08-20T11:27:41.522Z,32.29
2018-08-20T11:30:11.665Z,32.53
2018-08-20T11:32:40.305Z,32.51
2018-08-20T11:35:10.046Z,32.60
2018-08-20T11:37:38.726Z,32.66
2018-08-20T11:40:08.132Z,32.03
2018-08-20T11:42:37.582Z,32.15
2018-08-20T11:45:08.035Z,32.49
2018-08-20T11:47:36.667Z,32.50
2018-08-20T11:50:06.389Z,32.84
2018-08-20T11:52:35.115Z,33.10
2018-08-20T11:55:03.775Z,33.21
2018-08-20T11:57:33.056Z,33.20
2018-08-20T12:00:01.811Z,33.01
2018-08-20T12:02:30.807Z,32.80
2018-08-20T12:04:59.900Z,33.01
2018-08-20T12:07:28.993Z,33.19
2018-08-20T12:09:58.071Z,33.23
2018-08-20T12:12:27.509Z,33.21
2018-08-20T12:14:57.083Z,33.20
2018-08-20T12:17:26.659Z,33.36
2018-08-20T12:19:56.058Z,33.32
2018-08-20T12:22:24.648Z,33.34
2018-08-20T12:24:53.382Z,33.26
2018-08-20T12:27:21.944Z,33.54
2018-08-20T12:29:50.647Z,33.45
2018-08-20T12:32:19.960Z,33.73
2018-08-20T12:34:48.556Z,34.32
2018-08-20T12:37:17.146Z,34.52
2018-08-20T12:39:46.017Z,35.76
2018-08-20T12:42:14.654Z,37.11
2018-08-20T12:44:43.954Z,38.86
2018-08-20T12:47:12.635Z,39.78
2018-08-20T12:49:42.139Z,39.38
2018-08-20T12:52:11.058Z,39.66
2018-08-20T12:54:40.617Z,40.38
2018-08-20T12:57:09.526Z,41.23
2018-08-20T12:59:38.972Z,41.71
2018-08-20T13:02:07.616Z,42.30
2018-08-20T13:04:36.854Z,42.71
2018-08-20T13:07:06.375Z,42.15
2018-08-20T13:09:35.079Z,41.09
2018-08-20T13:12:03.696Z,41.79
2018-08-20T13:14:32.347Z,40.78
2018-08-20T13:17:01.540Z,39.94
2018-08-20T13:19:30.954Z,38.97
2018-08-20T13:21:59.549Z,38.74
2018-08-20T13:24:28.252Z,39.47
2018-08-20T13:26:56.869Z,39.77
2018-08-20T13:29:25.702Z,40.24
2018-08-20T13:31:55.191Z,41.37
2018-08-20T13:34:24.018Z,42.33
2018-08-20T13:36:53.548Z,41.84
2018-08-20T13:39:22.209Z,41.69
2018-08-20T13:41:50.916Z,40.57
2018-08-20T13:44:19.568Z,39.25
2018-08-20T13:46:48.329Z,39.00
2018-08-20T13:49:16.962Z,38.79
2018-08-20T13:51:45.725Z,39.01
2018-08-20T13:54:14.330Z,39.56
2018-08-20T13:56:43.402Z,38.14
2018-08-20T13:59:12.584Z,37.92
2018-08-20T14:01:41.769Z,37.29
2018-08-20T14:04:10.385Z,36.82
2018-08-20T14:06:39.245Z,36.37
2018-08-20T14:09:09.593Z,36.01
2018-08-20T14:11:38.310Z,36.95
2018-08-20T14:14:07.498Z,37.69
2018-08-20T14:16:36.177Z,38.48
2018-08-20T14:19:05.250Z,38.91
2018-08-20T14:21:33.837Z,38.11
2018-08-20T14:24:02.530Z,39.31
2018-08-20T14:26:31.975Z,40.00
2018-08-20T14:29:00.644Z,40.00
2018-08-20T14:31:29.549Z,40.11
2018-08-20T14:33:58.215Z,39.75
2018-08-20T14:36:27.010Z,39.78
2018-08-20T14:38:55.733Z,39.67
2018-08-20T14:41:24.795Z,38.58
2018-08-20T14:43:53.900Z,37.82
2018-08-20T14:46:23.660Z,37.46
2018-08-20T14:48:53.710Z,36.57
2018-08-20T14:51:22.477Z,36.45
2018-08-20T14:53:51.468Z,36.46
2018-08-20T14:56:20.898Z,36.17
2018-08-20T14:58:49.552Z,35.62
2018-08-20T15:01:18.380Z,35.86
2018-08-20T15:03:47.293Z,35.86
2018-08-20T15:06:15.953Z,36.20
2018-08-20T15:08:44.587Z,35.67
2018-08-20T15:11:13.379Z,35.29
2018-08-20T15:13:42.036Z,34.95
2018-08-20T15:16:10.706Z,34.38
2018-08-20T15:18:39.318Z,34.19
2018-08-20T15:21:07.944Z,34.15
2018-08-20T15:23:36.589Z,34.33
2018-08-20T15:26:05.226Z,34.34
2018-08-20T15:28:33.807Z,34.26
2018-08-20T15:31:02.479Z,34.23
2018-08-20T15:33:31.504Z,34.32
2018-08-20T15:36:00.285Z,34.15
2018-08-20T15:38:28.961Z,33.93
2018-08-20T15:40:57.683Z,33.90
2018-08-20T15:43:26.393Z,33.22
2018-08-20T15:45:55.375Z,33.38
2018-08-20T15:48:24.008Z,33.36
2018-08-20T15:50:52.652Z,33.57
2018-08-20T15:53:21.499Z,33.21
2018-08-20T15:55:50.236Z,33.08
2018-08-20T15:58:18.946Z,33.11
2018-08-20T16:00:48.295Z,33.24
2018-08-20T16:03:17.212Z,32.93
2018-08-20T16:05:45.861Z,32.54
2018-08-20T16:08:15.178Z,32.52
2018-08-20T16:10:43.980Z,32.68
2018-08-20T16:13:12.578Z,32.39
2018-08-20T16:15:41.594Z,32.38
2018-08-20T16:18:10.236Z,32.26
2018-08-20T16:20:39.056Z,31.99
2018-08-20T16:23:08.672Z,32.17
2018-08-20T16:25:37.760Z,31.98
2018-08-20T16:28:10.726Z,31.72
2018-08-20T16:30:39.381Z,31.72
2018-08-20T16:33:08.243Z,31.26
2018-08-20T16:35:36.897Z,31.20
2018-08-20T16:38:05.857Z,31.45
2018-08-20T16:40:34.617Z,31.50
2018-08-20T16:43:04.545Z,31.31
2018-08-20T16:45:33.367Z,31.03
2018-08-20T16:48:02.689Z,31.11
2018-08-20T16:50:32.013Z,31.15
2018-08-20T16:53:00.835Z,31.06
2018-08-20T16:55:29.636Z,30.88
2018-08-20T16:57:58.623Z,30.31
2018-08-20T17:00:28.029Z,30.52
2018-08-20T17:02:57.376Z,30.60
2018-08-20T17:05:33.218Z,30.52
2018-08-20T17:08:02.350Z,30.42
2018-08-20T17:10:30.972Z,30.31
2018-08-20T17:12:59.838Z,30.23
2018-08-20T17:15:29.064Z,30.06
2018-08-20T17:17:57.721Z,30.08
2018-08-20T17:20:26.578Z,30.20
2018-08-20T17:23:05.591Z,30.10
2018-08-20T17:25:34.280Z,30.17
2018-08-20T17:28:03.462Z,30.12
2018-08-20T17:30:32.275Z,30.17
2018-08-20T17:33:00.887Z,30.17
2018-08-20T17:35:29.607Z,29.96
2018-08-20T17:38:01.632Z,29.85
2018-08-20T17:40:30.401Z,29.91
2018-08-20T17:42:59.225Z,29.87
2018-08-20T17:45:28.833Z,29.75
2018-08-20T17:47:57.546Z,29.69
2018-08-20T17:50:41.342Z,29.67
2018-08-20T17:53:11.801Z,29.75
2018-08-20T17:55:41.564Z,29.82
2018-08-20T17:58:10.601Z,29.76
2018-08-20T18:00:44.942Z,29.65
2018-08-20T18:03:22.207Z,29.60
2018-08-20T18:05:57.144Z,29.68
2018-08-20T18:08:27.185Z,29.50
2018-08-20T18:10:55.985Z,29.58
2018-08-20T18:13:42.351Z,29.04
2018-08-20T18:16:12.266Z,29.32
2018-08-20T18:18:42.469Z,29.36
2018-08-20T18:21:11.217Z,29.06
2018-08-20T18:23:40.669Z,29.05
2018-08-20T18:26:09.544Z,28.96
2018-08-20T18:28:45.330Z,29.00
2018-08-20T18:31:21.371Z,29.05
2018-08-20T18:33:50.169Z,29.05
2018-08-20T18:36:22.840Z,28.99
2018-08-20T18:38:55.349Z,29.12
2018-08-20T18:42:33.546Z,29.14
2018-08-20T18:45:02.413Z,29.01
2018-08-20T18:47:31.106Z,28.96
2018-08-20T18:50:00.083Z,29.00
2018-08-20T18:52:29.821Z,28.77
2018-08-20T18:54:59.401Z,28.80
2018-08-20T18:57:32.581Z,28.62
2018-08-20T19:00:03.036Z,28.72
2018-08-20T19:02:38.286Z,28.74
2018-08-20T19:05:09.321Z,28.65
2018-08-20T19:07:38.092Z,28.66
2018-08-20T19:10:10.464Z,28.61
2018-08-20T19:12:39.191Z,28.59
2018-08-20T19:15:45.083Z,28.60
2018-08-20T19:18:17.939Z,28.64
2018-08-20T19:20:48.503Z,28.62
2018-08-20T19:23:21.258Z,28.61
2018-08-20T19:25:56.854Z,28.55
2018-08-20T19:28:25.938Z,28.53
2018-08-20T19:30:55.929Z,28.48
2018-08-20T19:33:27.127Z,28.47
2018-08-20T19:35:56.588Z,28.44
2018-08-20T19:38:25.779Z,28.43
2018-08-20T19:41:03.908Z,28.33
2018-08-20T19:43:48.170Z,28.28
2018-08-20T19:46:28.116Z,28.22
2018-08-20T19:49:02.115Z,28.14
2018-08-20T19:51:32.229Z,28.15
2018-08-20T19:54:00.977Z,28.11
2018-08-20T19:56:29.848Z,28.05
2018-08-20T19:58:58.537Z,27.98
2018-08-20T20:01:27.330Z,27.95
2018-08-20T20:03:56.129Z,27.87
2018-08-20T20:06:25.711Z,27.76
2018-08-20T20:08:54.393Z,27.71
2018-08-20T20:11:28.090Z,27.67
2018-08-20T20:14:01.692Z,27.65
2018-08-20T20:16:40.791Z,27.53
2018-08-20T20:19:10.143Z,27.47
2018-08-20T20:21:39.201Z,27.45
2018-08-20T20:24:08.547Z,27.41
2018-08-20T20:26:37.372Z,27.32
2018-08-20T20:29:07.756Z,27.28
2018-08-20T20:31:37.074Z,27.19
2018-08-20T20:34:05.832Z,27.15
2018-08-20T20:36:35.391Z,27.07
2018-08-20T20:39:05.612Z,27.08
2018-08-20T20:41:34.437Z,27.04
2018-08-20T20:44:04.018Z,27.00
2018-08-20T20:46:32.753Z,26.93
2018-08-20T20:49:01.493Z,26.90
2018-08-20T20:51:30.283Z,26.78
2018-08-20T20:53:59.106Z,26.81
2018-08-20T20:56:27.752Z,26.81
2018-08-20T20:58:56.525Z,26.76
2018-08-20T21:01:25.836Z,26.72
2018-08-20T21:03:54.551Z,26.62
2018-08-20T21:06:23.160Z,26.52
2018-08-20T21:08:52.448Z,26.46
2018-08-20T21:11:22.278Z,26.46
2018-08-20T21:13:50.950Z,26.46
2018-08-20T21:16:23.489Z,26.41
2018-08-20T21:18:53.627Z,26.22
2018-08-20T21:21:22.876Z,26.19
2018-08-20T21:23:51.575Z,26.03
2018-08-20T21:26:20.308Z,26.11
2018-08-20T21:28:50.158Z,26.17
2018-08-20T21:31:20.252Z,26.17
2018-08-20T21:33:49.570Z,26.20
2018-08-20T21:36:18.176Z,26.21
2018-08-20T21:38:46.840Z,26.14
2018-08-20T21:41:15.468Z,26.10
2018-08-20T21:43:47.853Z,26.07
2018-08-20T21:46:16.947Z,25.94
2018-08-20T21:48:46.062Z,25.88
2018-08-20T21:51:17.171Z,25.90
2018-08-20T21:53:45.787Z,25.91
2018-08-20T21:56:14.818Z,25.90
2018-08-20T21:58:44.266Z,25.80
2018-08-20T22:01:14.464Z,25.71
2018-08-20T22:03:43.529Z,25.68
2018-08-20T22:06:12.830Z,25.67
2018-08-20T22:08:41.943Z,25.64
2018-08-20T22:11:11.509Z,25.58
2018-08-20T22:13:40.257Z,25.54
2018-08-20T22:16:18.506Z,25.46
2018-08-20T22:18:49.537Z,25.39
2018-08-20T22:21:18.835Z,25.34
2018-08-20T22:23:47.945Z,25.31
2018-08-20T22:26:18.330Z,25.19
2018-08-20T22:28:48.967Z,25.09
2018-08-20T22:31:17.785Z,25.18
2018-08-20T22:33:55.571Z,25.17
2018-08-20T22:36:24.892Z,25.13
2018-08-20T22:38:55.900Z,25.04
2018-08-20T22:41:25.613Z,24.96
2018-08-20T22:43:54.388Z,24.92
2018-08-20T22:46:24.279Z,24.90
2018-08-20T22:48:54.417Z,24.86
2018-08-20T22:51:24.559Z,24.75
2018-08-20T22:53:58.183Z,24.74
2018-08-20T22:56:29.301Z,24.73
2018-08-20T22:59:00.279Z,24.65
2018-08-20T23:01:29.050Z,24.63
2018-08-20T23:03:57.921Z,24.58
2018-08-20T23:06:27.343Z,24.51
2018-08-20T23:08:56.008Z,24.46
2018-08-20T23:11:40.006Z,24.38
2018-08-20T23:14:10.496Z,24.31
2018-08-20T23:16:39.632Z,24.20
2018-08-20T23:19:08.667Z,24.15
2018-08-20T23:21:41.335Z,24.15
2018-08-20T23:24:10.749Z,24.21
2018-08-20T23:26:39.452Z,24.14
2018-08-20T23:29:08.296Z,24.16
2018-08-20T23:31:37.213Z,24.13
2018-08-20T23:34:08.627Z,24.17
2018-08-20T23:36:37.552Z,24.14
2018-08-20T23:39:09.222Z,24.03
2018-08-20T23:41:38.019Z,24.09
2018-08-20T23:44:07.284Z,24.06
2018-08-20T23:46:39.301Z,24.05
2018-08-20T23:49:07.940Z,24.05
2018-08-20T23:51:36.592Z,24.07
2018-08-20T23:54:05.310Z,23.99
2018-08-20T23:56:33.950Z,23.93
2018-08-20T23:59:02.528Z,23.90
